createdAt,value
2023-04-03T00:00:51.171Z,2.00
2023-04-03T00:01:52.520Z,1.83
2023-04-03T00:02:54.086Z,2.00
2023-04-03T00:03:56.500Z,2.20
2023-04-03T00:04:57.807Z,1.80
2023-04-03T00:05:59.272Z,2.30
2023-04-03T00:07:00.567Z,2.03
2023-04-03T00:08:02.946Z,2.20
2023-04-03T00:09:04.247Z,2.20
2023-04-03T00:10:05.815Z,2.70
2023-04-03T00:11:07.414Z,2.00
2023-04-03T00:12:08.748Z,2.10
2023-04-03T00:13:10.482Z,2.00
2023-04-03T00:14:11.803Z,1.80
2023-04-03T00:15:13.272Z,2.30
2023-04-03T00:16:14.688Z,1.77
2023-04-03T00:17:16.200Z,2.07
2023-04-03T00:18:17.621Z,1.80
2023-04-03T00:19:18.938Z,1.90
2023-04-03T00:20:20.380Z,1.93
2023-04-03T00:21:21.682Z,2.30
2023-04-03T00:22:23.048Z,1.97
2023-04-03T00:23:24.644Z,1.90
2023-04-03T00:24:26.055Z,2.20
2023-04-03T00:25:27.654Z,1.80
2023-04-03T00:26:28.968Z,1.80
2023-04-03T00:27:30.270Z,1.97
2023-04-03T00:28:31.568Z,1.90
2023-04-03T00:29:32.905Z,1.63
2023-04-03T00:30:34.901Z,1.80
2023-04-03T00:31:36.597Z,1.70
2023-04-03T00:32:37.973Z,1.50
2023-04-03T00:33:39.305Z,1.83
2023-04-03T00:34:40.613Z,1.70
2023-04-03T00:35:42.399Z,1.60
2023-04-03T00:36:43.874Z,1.80
2023-04-03T00:37:46.087Z,1.70
2023-04-03T00:38:47.373Z,1.80
2023-04-03T00:39:48.720Z,2.00
2023-04-03T00:40:50.939Z,1.70
2023-04-03T00:41:52.295Z,2.00
2023-04-03T00:42:57.904Z,1.73
2023-04-03T00:43:59.197Z,1.90
2023-04-03T00:45:01.702Z,2.10
2023-04-03T00:46:03.276Z,2.10
2023-04-03T00:47:06.711Z,2.00
2023-04-03T00:48:09.375Z,1.80
2023-04-03T00:49:11.254Z,1.83
2023-04-03T00:50:12.618Z,2.00
2023-04-03T00:51:16.792Z,1.80
2023-04-03T00:52:20.053Z,1.87
2023-04-03T00:53:24.346Z,2.10
2023-04-03T00:54:26.328Z,2.20
2023-04-03T00:55:27.775Z,1.83
2023-04-03T00:56:30.755Z,1.80
2023-04-03T00:57:32.654Z,1.90
2023-04-03T00:58:42.762Z,1.77
2023-04-03T00:59:45.560Z,1.80
2023-04-03T01:00:48.853Z,1.90
2023-04-03T01:01:50.603Z,1.90
2023-04-03T01:02:52.370Z,2.07
2023-04-03T01:03:54.218Z,1.80
2023-04-03T01:04:56.514Z,1.70
2023-04-03T01:05:58.225Z,1.70
2023-04-03T01:07:02.505Z,2.10
2023-04-03T01:08:04.368Z,2.00
2023-04-03T01:09:06.168Z,1.67
2023-04-03T01:10:09.332Z,1.90
2023-04-03T01:11:10.760Z,1.70
2023-04-03T01:12:17.653Z,1.90
2023-04-03T01:13:22.103Z,1.80
2023-04-03T01:14:23.391Z,2.00
2023-04-03T01:15:26.482Z,1.70
2023-04-03T01:16:28.781Z,2.00
2023-04-03T01:17:44.456Z,1.97
2023-04-03T01:18:46.534Z,1.87
2023-04-03T01:19:55.905Z,1.83
2023-04-03T01:21:20.437Z,1.70
2023-04-03T01:22:27.320Z,1.80
2023-04-03T01:23:33.663Z,1.90
2023-04-03T01:24:37.111Z,1.90
2023-04-03T01:25:58.241Z,1.50
2023-04-03T01:27:01.391Z,1.50
2023-04-03T01:28:03.176Z,1.67
2023-04-03T01:29:04.541Z,1.60
2023-04-03T01:30:06.797Z,1.70
2023-04-03T01:31:08.311Z,1.47
2023-04-03T01:32:10.700Z,1.57
2023-04-03T01:33:12.168Z,1.67
2023-04-03T01:34:13.629Z,1.70
2023-04-03T01:35:14.969Z,1.80
2023-04-03T01:36:25.069Z,1.80
2023-04-03T01:37:26.439Z,1.53
2023-04-03T01:38:27.846Z,1.50
2023-04-03T01:39:29.348Z,1.60
2023-04-03T01:40:31.475Z,2.10
2023-04-03T01:41:33.254Z,1.57
2023-04-03T01:42:42.987Z,1.40
2023-04-03T01:43:44.294Z,1.80
2023-04-03T01:44:46.196Z,1.60
2023-04-03T01:45:47.801Z,1.80
2023-04-03T01:46:49.498Z,1.80
2023-04-03T01:47:51.046Z,2.00
2023-04-03T01:48:52.721Z,1.53
2023-04-03T01:49:54.020Z,1.80
2023-04-03T01:50:55.451Z,1.80
2023-04-03T01:51:56.808Z,1.70
2023-04-03T01:52:58.262Z,1.77
2023-04-03T01:53:59.566Z,1.87
2023-04-03T01:55:01.520Z,1.83
2023-04-03T01:56:03.296Z,1.77
2023-04-03T01:57:06.636Z,1.83
2023-04-03T01:58:08.300Z,1.80
2023-04-03T01:59:09.753Z,1.60
2023-04-03T02:00:11.321Z,1.90
2023-04-03T02:01:16.430Z,1.80
2023-04-03T02:02:18.167Z,1.90
2023-04-03T02:03:19.811Z,2.10
2023-04-03T02:04:21.161Z,2.00
2023-04-03T02:05:22.495Z,2.10
2023-04-03T02:06:23.819Z,2.00
2023-04-03T02:07:26.228Z,2.63
2023-04-03T02:08:27.618Z,2.03
2023-04-03T02:09:28.929Z,2.10
2023-04-03T02:10:30.467Z,2.13
2023-04-03T02:11:32.314Z,2.00
2023-04-03T02:12:33.840Z,1.83
2023-04-03T02:13:35.324Z,1.73
2023-04-03T02:14:36.682Z,2.00
2023-04-03T02:15:40.774Z,2.00
2023-04-03T02:16:42.422Z,1.77
2023-04-03T02:17:43.875Z,2.07
2023-04-03T02:18:45.368Z,1.70
2023-04-03T02:19:46.713Z,2.10
2023-04-03T02:20:48.629Z,2.00
2023-04-03T02:21:49.967Z,1.77
2023-04-03T02:22:51.311Z,1.90
2023-04-03T02:23:53.026Z,2.07
2023-04-03T02:24:54.366Z,1.97
2023-04-03T02:26:03.394Z,1.80
2023-04-03T02:27:04.798Z,1.60
2023-04-03T02:28:06.511Z,1.83
2023-04-03T02:29:07.892Z,2.00
2023-04-03T02:30:11.606Z,1.80
2023-04-03T02:31:12.959Z,1.80
2023-04-03T02:32:16.055Z,1.93
2023-04-03T02:33:18.124Z,2.13
2023-04-03T02:34:19.476Z,2.43
2023-04-03T02:35:22.690Z,1.60
2023-04-03T02:36:24.329Z,1.70
2023-04-03T02:37:29.936Z,1.67
2023-04-03T02:38:31.444Z,1.80
2023-04-03T02:39:33.038Z,1.83
2023-04-03T02:40:35.554Z,1.80
2023-04-03T02:41:37.205Z,1.80
2023-04-03T02:42:43.681Z,1.67
2023-04-03T02:43:45.105Z,1.80
2023-04-03T02:44:46.412Z,1.70
2023-04-03T02:45:47.719Z,1.87
2023-04-03T02:46:49.162Z,1.80
2023-04-03T02:47:50.524Z,2.10
2023-04-03T02:48:51.923Z,2.00
2023-04-03T02:49:53.950Z,1.83
2023-04-03T02:50:55.256Z,2.10
2023-04-03T02:51:56.561Z,2.53
2023-04-03T02:52:57.937Z,1.80
2023-04-03T02:53:59.513Z,1.70
2023-04-03T02:55:04.792Z,1.80
2023-04-03T02:56:06.460Z,1.50
2023-04-03T02:57:09.863Z,1.63
2023-04-03T02:58:11.539Z,2.03
2023-04-03T02:59:12.915Z,2.00
2023-04-03T03:00:15.465Z,1.73
2023-04-03T03:01:16.981Z,1.97
2023-04-03T03:02:18.382Z,1.87
2023-04-03T03:03:19.855Z,1.63
2023-04-03T03:04:21.223Z,1.80
2023-04-03T03:05:22.886Z,1.73
2023-04-03T03:06:24.405Z,1.87
2023-04-03T03:07:25.735Z,2.03
2023-04-03T03:08:27.088Z,1.77
2023-04-03T03:09:28.896Z,1.90
2023-04-03T03:10:30.296Z,2.17
2023-04-03T03:11:31.630Z,1.57
2023-04-03T03:12:33.852Z,1.90
2023-04-03T03:13:35.254Z,2.50
2023-04-03T03:14:36.555Z,1.83
2023-04-03T03:15:37.879Z,1.80
2023-04-03T03:16:39.294Z,2.13
2023-04-03T03:17:40.758Z,2.00
2023-04-03T03:18:42.104Z,1.90
2023-04-03T03:19:43.817Z,2.00
2023-04-03T03:20:45.358Z,1.77
2023-04-03T03:21:46.698Z,1.90
2023-04-03T03:22:48.027Z,2.00
2023-04-03T03:23:49.347Z,2.00
2023-04-03T03:24:50.790Z,1.70
2023-04-03T03:26:11.408Z,1.73
2023-04-03T03:27:13.141Z,2.17
2023-04-03T03:28:14.484Z,1.90
2023-04-03T03:29:15.847Z,2.07
2023-04-03T03:30:17.612Z,2.00
2023-04-03T03:31:19.004Z,2.23
2023-04-03T03:32:20.612Z,1.97
2023-04-03T03:33:22.064Z,2.00
2023-04-03T03:34:23.418Z,2.10
2023-04-03T03:35:24.726Z,1.90
2023-04-03T03:36:26.404Z,1.83
2023-04-03T03:37:28.602Z,2.33
2023-04-03T03:38:30.356Z,2.10
2023-04-03T03:39:31.738Z,2.40
2023-04-03T03:40:33.031Z,2.30
2023-04-03T03:41:34.446Z,2.20
2023-04-03T03:42:35.959Z,2.30
2023-04-03T03:43:37.463Z,2.20
2023-04-03T03:44:41.095Z,1.97
2023-04-03T03:45:42.487Z,1.93
2023-04-03T03:46:43.835Z,2.00
2023-04-03T03:47:45.312Z,2.10
2023-04-03T03:48:46.684Z,2.10
2023-04-03T03:49:48.012Z,2.10
2023-04-03T03:50:51.079Z,1.87
2023-04-03T03:51:54.057Z,2.33
2023-04-03T03:52:55.569Z,1.90
2023-04-03T03:53:56.944Z,1.80
2023-04-03T03:54:58.315Z,2.33
2023-04-03T03:55:59.684Z,2.20
2023-04-03T03:57:03.244Z,1.90
2023-04-03T03:58:05.719Z,2.07
2023-04-03T03:59:08.720Z,2.20
2023-04-03T04:00:13.836Z,2.20
2023-04-03T04:01:23.081Z,2.10
2023-04-03T04:02:24.498Z,2.60
2023-04-03T04:03:28.930Z,2.50
2023-04-03T04:04:33.199Z,1.97
2023-04-03T04:05:35.121Z,2.30
2023-04-03T04:06:36.772Z,1.90
2023-04-03T04:07:40.764Z,2.17
2023-04-03T04:08:42.656Z,2.00
2023-04-03T04:09:46.306Z,2.53
2023-04-03T04:10:47.709Z,2.13
2023-04-03T04:11:50.942Z,2.20
2023-04-03T04:12:53.360Z,2.10
2023-04-03T04:13:58.175Z,2.20
2023-04-03T04:15:02.421Z,2.00
2023-04-03T04:16:04.174Z,2.33
2023-04-03T04:17:07.056Z,2.13
2023-04-03T04:18:08.638Z,2.20
2023-04-03T04:19:10.889Z,2.30
2023-04-03T04:20:13.332Z,2.40
2023-04-03T04:21:15.615Z,2.30
2023-04-03T04:22:17.309Z,2.07
2023-04-03T04:23:19.119Z,2.30
2023-04-03T04:24:20.944Z,2.60
2023-04-03T04:25:23.859Z,5.70
2023-04-03T04:26:25.830Z,2.57
2023-04-03T04:27:27.255Z,2.50
2023-04-03T04:28:28.575Z,2.00
2023-04-03T04:29:36.497Z,2.03
2023-04-03T04:30:39.005Z,2.27
2023-04-03T04:31:40.490Z,2.20
2023-04-03T04:32:42.242Z,2.10
2023-04-03T04:33:43.758Z,2.57
2023-04-03T04:34:47.526Z,2.13
2023-04-03T04:35:49.474Z,1.90
2023-04-03T04:36:52.410Z,2.17
2023-04-03T04:37:53.892Z,2.50
2023-04-03T04:38:55.859Z,2.50
2023-04-03T04:39:59.509Z,2.20
2023-04-03T04:41:01.077Z,2.03
2023-04-03T04:42:02.894Z,2.13
2023-04-03T04:43:05.962Z,2.20
2023-04-03T04:44:07.796Z,2.40
2023-04-03T04:45:09.425Z,1.67
2023-04-03T04:46:15.189Z,2.07
2023-04-03T04:47:21.934Z,2.20
2023-04-03T04:48:23.968Z,2.37
2023-04-03T04:49:25.414Z,2.83
2023-04-03T04:50:27.262Z,2.10
2023-04-03T04:51:35.155Z,2.20
2023-04-03T04:52:42.758Z,2.23
2023-04-03T04:53:44.563Z,2.40
2023-04-03T04:54:49.609Z,2.00
2023-04-03T04:55:51.005Z,2.20
2023-04-03T04:56:52.473Z,2.03
2023-04-03T04:57:54.455Z,2.17
2023-04-03T04:58:56.533Z,2.23
2023-04-03T04:59:58.944Z,1.90
2023-04-03T05:01:01.116Z,2.00
2023-04-03T05:02:04.056Z,1.87
2023-04-03T05:03:06.352Z,1.80
2023-04-03T05:04:07.990Z,2.73
2023-04-03T05:05:09.589Z,2.43
2023-04-03T05:06:11.985Z,2.20
2023-04-03T05:07:13.496Z,1.93
2023-04-03T05:08:15.425Z,1.90
2023-04-03T05:09:20.787Z,2.03
2023-04-03T05:10:22.901Z,2.00
2023-04-03T05:11:25.225Z,2.10
2023-04-03T05:12:27.164Z,2.40
2023-04-03T05:13:33.133Z,1.97
2023-04-03T05:14:34.492Z,1.90
2023-04-03T05:15:43.187Z,1.90
2023-04-03T05:16:44.587Z,2.20
2023-04-03T05:17:48.138Z,2.20
2023-04-03T05:18:53.315Z,1.80
2023-04-03T05:19:59.567Z,2.03
2023-04-03T05:21:02.279Z,1.80
2023-04-03T05:22:03.737Z,2.43
2023-04-03T05:23:05.595Z,1.93
2023-04-03T05:24:17.697Z,2.80
2023-04-03T05:25:22.604Z,2.63
2023-04-03T05:26:27.003Z,2.40
2023-04-03T05:27:30.678Z,2.03
2023-04-03T05:28:34.570Z,2.23
2023-04-03T05:29:35.982Z,1.77
2023-04-03T05:30:41.371Z,2.00
2023-04-03T05:31:46.248Z,2.10
2023-04-03T05:32:48.768Z,2.20
2023-04-03T05:33:54.219Z,2.30
2023-04-03T05:34:56.122Z,2.47
2023-04-03T05:35:57.528Z,2.07
2023-04-03T05:37:05.969Z,2.17
2023-04-03T05:38:08.644Z,2.00
2023-04-03T05:39:14.282Z,2.20
2023-04-03T05:40:20.923Z,2.47
2023-04-03T05:41:25.850Z,1.97
2023-04-03T05:42:27.439Z,2.13
2023-04-03T05:43:28.829Z,2.13
2023-04-03T05:44:36.244Z,2.20
2023-04-03T05:45:37.617Z,2.40
2023-04-03T05:46:39.034Z,2.27
2023-04-03T05:47:43.016Z,2.37
2023-04-03T05:48:44.822Z,1.90
2023-04-03T05:49:49.774Z,2.07
2023-04-03T05:50:54.604Z,2.53
2023-04-03T05:51:59.331Z,2.40
2023-04-03T05:53:04.107Z,2.50
2023-04-03T05:54:13.491Z,3.47
2023-04-03T05:55:15.856Z,3.30
2023-04-03T05:56:17.159Z,2.73
2023-04-03T05:57:19.111Z,3.20
2023-04-03T05:58:20.980Z,2.40
2023-04-03T05:59:23.988Z,3.37
2023-04-03T06:00:28.689Z,2.37
2023-04-03T06:01:35.792Z,2.57
2023-04-03T06:02:37.345Z,2.20
2023-04-03T06:03:40.668Z,2.30
2023-04-03T06:04:44.165Z,2.20
2023-04-03T06:05:47.231Z,2.20
2023-04-03T06:06:53.528Z,2.10
2023-04-03T06:07:55.087Z,2.10
2023-04-03T06:08:56.446Z,2.63
2023-04-03T06:09:58.083Z,2.10
2023-04-03T06:10:59.525Z,2.13
2023-04-03T06:12:02.758Z,2.27
2023-04-03T06:13:05.231Z,2.10
2023-04-03T06:14:06.564Z,2.57
2023-04-03T06:15:10.896Z,2.27
2023-04-03T06:16:16.350Z,2.30
2023-04-03T06:17:18.891Z,2.50
2023-04-03T06:18:20.428Z,2.10
2023-04-03T06:19:22.653Z,2.00
2023-04-03T06:20:27.240Z,2.40
2023-04-03T06:21:28.971Z,2.27
2023-04-03T06:22:30.960Z,2.40
2023-04-03T06:23:33.680Z,2.30
2023-04-03T06:24:35.146Z,2.20
2023-04-03T06:25:36.533Z,2.40
2023-04-03T06:26:38.169Z,2.10
2023-04-03T06:27:39.508Z,2.60
2023-04-03T06:28:40.848Z,2.30
2023-04-03T06:29:42.217Z,2.33
2023-04-03T06:30:43.562Z,2.50
2023-04-03T06:31:45.257Z,2.00
2023-04-03T06:32:46.765Z,2.77
2023-04-03T06:33:48.229Z,3.07
2023-04-03T06:34:49.709Z,3.17
2023-04-03T06:35:58.952Z,3.73
2023-04-03T06:37:00.459Z,2.47
2023-04-03T06:38:02.093Z,2.83
2023-04-03T06:39:04.157Z,3.10
2023-04-03T06:40:06.381Z,2.40
2023-04-03T06:41:08.102Z,2.70
2023-04-03T06:42:09.424Z,2.67
2023-04-03T06:43:19.847Z,2.67
2023-04-03T06:44:21.214Z,2.50
2023-04-03T06:45:22.621Z,2.93
2023-04-03T06:46:24.692Z,2.60
2023-04-03T06:47:26.219Z,2.27
2023-04-03T06:48:27.666Z,2.60
2023-04-03T06:49:29.860Z,2.37
2023-04-03T06:50:31.310Z,2.83
2023-04-03T06:51:32.750Z,2.33
2023-04-03T06:52:34.140Z,2.40
2023-04-03T06:53:35.451Z,2.37
2023-04-03T06:54:36.847Z,2.37
2023-04-03T06:55:38.487Z,2.50
2023-04-03T06:56:39.941Z,2.50
2023-04-03T06:57:41.453Z,2.60
2023-04-03T06:58:43.270Z,2.23
2023-04-03T06:59:44.891Z,2.60
2023-04-03T07:00:46.293Z,2.63
2023-04-03T07:01:48.270Z,2.30
2023-04-03T07:02:49.717Z,2.70
2023-04-03T07:03:51.186Z,2.90
2023-04-03T07:04:52.795Z,2.53
2023-04-03T07:05:54.206Z,2.20
2023-04-03T07:06:55.581Z,3.00
2023-04-03T07:07:57.117Z,2.60
2023-04-03T07:08:58.473Z,2.20
2023-04-03T07:09:59.869Z,2.40
2023-04-03T07:11:01.519Z,2.73
2023-04-03T07:12:02.924Z,2.70
2023-04-03T07:13:04.375Z,2.97
2023-04-03T07:14:08.561Z,2.77
2023-04-03T07:15:10.345Z,2.40
2023-04-03T07:16:12.106Z,2.80
2023-04-03T07:17:13.540Z,3.47
2023-04-03T07:18:14.988Z,2.37
2023-04-03T07:19:16.570Z,2.30
2023-04-03T07:20:18.073Z,2.40
2023-04-03T07:21:19.387Z,2.63
2023-04-03T07:22:20.658Z,1.80
2023-04-03T07:23:22.095Z,2.07
2023-04-03T07:24:23.720Z,1.87
2023-04-03T07:25:25.118Z,2.00
2023-04-03T07:26:30.489Z,1.93
2023-04-03T07:27:33.343Z,2.10
2023-04-03T07:28:35.073Z,2.07
2023-04-03T07:29:36.581Z,1.90
2023-04-03T07:30:43.288Z,1.90
2023-04-03T07:31:45.661Z,2.00
2023-04-03T07:32:47.358Z,1.93
2023-04-03T07:33:48.719Z,2.10
2023-04-03T07:34:50.060Z,1.97
2023-04-03T07:35:51.555Z,1.70
2023-04-03T07:36:53.127Z,1.90
2023-04-03T07:37:54.476Z,1.90
2023-04-03T07:38:55.807Z,1.73
2023-04-03T07:39:58.173Z,2.47
2023-04-03T07:41:06.878Z,2.00
2023-04-03T07:42:12.089Z,1.90
2023-04-03T07:43:13.612Z,1.63
2023-04-03T07:44:15.391Z,1.80
2023-04-03T07:45:18.259Z,2.20
2023-04-03T07:46:19.711Z,1.90
2023-04-03T07:47:22.086Z,1.90
2023-04-03T07:48:25.040Z,1.60
2023-04-03T07:49:27.078Z,1.87
2023-04-03T07:50:28.404Z,1.60
2023-04-03T07:51:30.808Z,1.50
2023-04-03T07:52:34.146Z,1.60
2023-04-03T07:53:35.914Z,2.17
2023-04-03T07:54:37.369Z,1.60
2023-04-03T07:55:43.878Z,1.63
2023-04-03T07:56:45.433Z,1.63
2023-04-03T07:57:46.767Z,1.33
2023-04-03T07:58:48.104Z,1.63
2023-04-03T07:59:49.423Z,1.40
2023-04-03T08:00:51.398Z,1.70
2023-04-03T08:01:52.790Z,1.73
2023-04-03T08:02:54.199Z,1.70
2023-04-03T08:03:55.855Z,1.90
2023-04-03T08:04:57.406Z,2.13
2023-04-03T08:06:03.165Z,1.73
2023-04-03T08:07:04.989Z,1.50
2023-04-03T08:08:07.240Z,1.57
2023-04-03T08:09:09.291Z,1.53
2023-04-03T08:10:10.715Z,1.83
2023-04-03T08:11:12.530Z,1.30
2023-04-03T08:12:15.051Z,1.60
2023-04-03T08:13:16.562Z,1.40
2023-04-03T08:14:19.378Z,2.07
2023-04-03T08:15:21.207Z,1.80
2023-04-03T08:16:24.440Z,1.70
2023-04-03T08:17:25.990Z,1.53
2023-04-03T08:18:27.632Z,1.83
2023-04-03T08:19:28.975Z,1.43
2023-04-03T08:20:30.493Z,1.37
2023-04-03T08:21:31.898Z,1.70
2023-04-03T08:22:33.795Z,1.33
2023-04-03T08:23:35.230Z,1.50
2023-04-03T08:24:37.692Z,1.40
2023-04-03T08:25:41.887Z,1.60
2023-04-03T08:26:43.296Z,1.30
2023-04-03T08:27:44.984Z,1.40
2023-04-03T08:28:46.338Z,1.90
2023-04-03T08:29:47.745Z,1.60
2023-04-03T08:30:49.500Z,1.50
2023-04-03T08:31:51.285Z,1.30
2023-04-03T08:32:52.825Z,1.13
2023-04-03T08:33:54.193Z,1.30
2023-04-03T08:34:55.530Z,1.90
2023-04-03T08:35:57.441Z,1.57
2023-04-03T08:36:58.735Z,1.57
2023-04-03T08:38:00.054Z,1.30
2023-04-03T08:39:01.439Z,1.20
2023-04-03T08:40:03.803Z,1.30
2023-04-03T08:41:11.413Z,1.57
2023-04-03T08:42:27.865Z,1.30
2023-04-03T08:43:54.253Z,1.10
2023-04-03T08:45:02.173Z,1.30
2023-04-03T08:46:06.120Z,1.50
2023-04-03T08:47:26.116Z,1.03
2023-04-03T08:48:30.401Z,1.50
2023-04-03T08:49:31.982Z,1.60
2023-04-03T08:50:40.966Z,1.10
2023-04-03T08:51:44.655Z,1.50
2023-04-03T08:52:51.468Z,1.20
2023-04-03T08:54:05.329Z,2.10
2023-04-03T08:55:08.867Z,1.53
2023-04-03T08:56:11.018Z,1.30
2023-04-03T08:57:16.001Z,1.30
2023-04-03T08:58:19.575Z,1.40
2023-04-03T08:59:25.512Z,1.70
2023-04-03T09:00:27.976Z,1.40
2023-04-03T09:01:36.554Z,1.57
2023-04-03T09:02:43.402Z,1.30
2023-04-03T09:03:44.839Z,1.10
2023-04-03T09:04:46.437Z,1.30
2023-04-03T09:06:00.773Z,1.30
2023-04-03T09:07:09.513Z,1.80
2023-04-03T09:08:11.018Z,1.40
2023-04-03T09:09:16.827Z,2.17
2023-04-03T09:10:23.288Z,1.83
2023-04-03T09:11:28.422Z,1.20
2023-04-03T09:12:39.290Z,1.20
2023-04-03T09:13:45.744Z,2.00
2023-04-03T09:14:55.962Z,1.77
2023-04-03T09:15:58.039Z,1.20
2023-04-03T09:17:01.376Z,1.60
2023-04-03T09:18:10.129Z,1.20
2023-04-03T09:19:16.841Z,1.20
2023-04-03T09:20:22.293Z,1.57
2023-04-03T09:21:32.361Z,1.13
2023-04-03T09:22:41.772Z,1.40
2023-04-03T09:23:48.728Z,1.23
2023-04-03T09:24:53.298Z,1.10
2023-04-03T09:25:58.746Z,1.07
2023-04-03T09:27:06.670Z,1.13
2023-04-03T09:28:10.828Z,1.03
2023-04-03T09:29:18.120Z,0.90
2023-04-03T09:30:21.263Z,1.20
2023-04-03T09:31:23.910Z,1.60
2023-04-03T09:32:29.835Z,1.33
2023-04-03T09:33:31.297Z,1.00
2023-04-03T09:34:33.829Z,1.10
2023-04-03T09:35:47.300Z,1.40
2023-04-03T09:36:50.390Z,1.30
2023-04-03T09:37:59.980Z,1.73
2023-04-03T09:39:06.174Z,1.23
2023-04-03T09:40:27.744Z,1.20
2023-04-03T09:41:29.315Z,1.10
2023-04-03T09:42:32.040Z,1.30
2023-04-03T09:43:35.425Z,1.30
2023-04-03T09:44:38.095Z,1.50
2023-04-03T09:45:39.521Z,1.10
2023-04-03T09:46:41.468Z,1.37
2023-04-03T09:47:43.012Z,1.20
2023-04-03T09:48:55.034Z,1.67
2023-04-03T09:50:21.164Z,1.40
2023-04-03T09:51:25.610Z,1.27
2023-04-03T09:52:27.251Z,1.50
2023-04-03T09:53:39.013Z,1.37
2023-04-03T09:54:41.836Z,1.40
2023-04-03T09:55:44.145Z,1.23
2023-04-03T09:56:50.439Z,1.20
2023-04-03T09:57:53.580Z,1.10
2023-04-03T09:59:02.153Z,1.67
2023-04-03T10:00:05.973Z,1.20
2023-04-03T10:01:07.752Z,1.70
2023-04-03T10:02:12.175Z,1.50
2023-04-03T10:03:32.222Z,1.37
2023-04-03T10:04:39.308Z,1.73
2023-04-03T10:05:42.120Z,1.13
2023-04-03T10:06:47.572Z,1.23
2023-04-03T10:07:58.164Z,1.40
2023-04-03T10:09:07.402Z,1.13
2023-04-03T10:10:27.146Z,1.30
2023-04-03T10:11:28.490Z,1.40
2023-04-03T10:12:30.774Z,1.20
2023-04-03T10:13:32.439Z,1.20
2023-04-03T10:14:37.086Z,1.10
2023-04-03T10:15:46.112Z,1.20
2023-04-03T10:16:54.079Z,1.30
2023-04-03T10:18:06.437Z,1.20
2023-04-03T10:19:13.005Z,1.00
2023-04-03T10:20:17.478Z,1.20
2023-04-03T10:21:27.749Z,1.30
2023-04-03T10:22:31.968Z,1.63
2023-04-03T10:23:42.892Z,1.90
2023-04-03T10:25:04.509Z,1.83
2023-04-03T10:26:06.630Z,1.30
2023-04-03T10:27:14.365Z,1.10
2023-04-03T10:28:21.716Z,1.87
2023-04-03T10:29:23.158Z,1.60
2023-04-03T10:30:30.772Z,1.60
2023-04-03T10:31:41.619Z,2.00
2023-04-03T10:32:51.139Z,1.50
2023-04-03T10:34:01.570Z,1.43
2023-04-03T10:35:08.889Z,1.63
2023-04-03T10:36:29.200Z,1.73
2023-04-03T10:37:37.500Z,1.53
2023-04-03T10:38:57.803Z,1.67
2023-04-03T10:40:06.331Z,1.10
2023-04-03T10:41:34.064Z,1.27
2023-04-03T10:42:35.447Z,1.13
2023-04-03T10:43:36.807Z,1.40
2023-04-03T10:44:38.455Z,1.13
2023-04-03T10:45:42.568Z,1.50
2023-04-03T10:46:47.483Z,1.60
2023-04-03T10:47:57.310Z,1.63
2023-04-03T10:49:06.817Z,1.50
2023-04-03T10:50:08.283Z,1.90
2023-04-03T10:51:22.047Z,1.10
2023-04-03T10:52:27.127Z,1.50
2023-04-03T10:53:35.949Z,1.40
2023-04-03T10:55:00.426Z,1.70
2023-04-03T10:56:11.385Z,1.00
2023-04-03T10:57:13.991Z,1.13
2023-04-03T10:58:32.839Z,1.20
2023-04-03T10:59:48.609Z,0.93
2023-04-03T11:00:51.478Z,1.17
2023-04-03T11:01:56.755Z,1.00
2023-04-03T11:02:58.360Z,1.03
2023-04-03T11:04:03.553Z,1.07
2023-04-03T11:05:10.388Z,0.87
2023-04-03T11:06:13.442Z,1.10
2023-04-03T11:07:27.444Z,1.13
2023-04-03T11:08:41.060Z,1.20
2023-04-03T11:09:50.267Z,1.30
2023-04-03T11:10:52.297Z,1.13
2023-04-03T11:12:01.351Z,1.10
2023-04-03T11:13:09.934Z,1.20
2023-04-03T11:14:21.779Z,1.40
2023-04-03T11:15:24.596Z,1.40
2023-04-03T11:16:30.613Z,1.50
2023-04-03T11:17:44.219Z,1.10
2023-04-03T11:18:52.679Z,1.20
2023-04-03T11:20:15.535Z,1.03
2023-04-03T11:21:29.569Z,1.10
2023-04-03T11:22:39.479Z,2.73
2023-04-03T11:23:49.460Z,1.20
2023-04-03T11:24:56.080Z,1.20
2023-04-03T11:26:00.744Z,1.10
2023-04-03T11:27:05.334Z,1.10
2023-04-03T11:28:11.974Z,1.20
2023-04-03T11:29:34.482Z,1.50
2023-04-03T11:30:53.787Z,1.00
2023-04-03T11:32:08.132Z,1.13
2023-04-03T11:33:16.333Z,0.90
2023-04-03T11:34:28.990Z,1.20
2023-04-03T11:35:34.091Z,1.37
2023-04-03T11:36:50.296Z,1.20
2023-04-03T11:37:53.481Z,1.40
2023-04-03T11:39:14.835Z,1.40
2023-04-03T11:40:16.465Z,2.03
2023-04-03T11:41:25.203Z,1.40
2023-04-03T11:42:38.668Z,1.40
2023-04-03T11:44:00.990Z,2.00
2023-04-03T11:45:17.425Z,2.23
2023-04-03T11:46:20.607Z,1.30
2023-04-03T11:47:40.482Z,1.60
2023-04-03T11:48:41.774Z,1.50
2023-04-03T11:49:54.327Z,1.70
2023-04-03T11:50:59.453Z,1.67
2023-04-03T11:52:00.821Z,1.23
2023-04-03T11:53:03.901Z,1.40
2023-04-03T11:54:26.429Z,1.30
2023-04-03T11:55:31.418Z,1.77
2023-04-03T11:56:33.123Z,1.30
2023-04-03T11:58:02.850Z,1.50
2023-04-03T11:59:16.530Z,1.50
2023-04-03T12:00:36.463Z,1.67
2023-04-03T12:01:46.689Z,1.80
2023-04-03T12:02:54.406Z,2.30
2023-04-03T12:04:07.228Z,1.50
2023-04-03T12:05:29.345Z,1.73
2023-04-03T12:06:33.512Z,1.20
2023-04-03T12:07:34.862Z,1.40
2023-04-03T12:08:42.650Z,1.40
2023-04-03T12:09:46.918Z,1.27
2023-04-03T12:11:12.674Z,1.77
2023-04-03T12:12:28.435Z,1.60
2023-04-03T12:13:29.831Z,2.00
2023-04-03T12:14:31.257Z,2.20
2023-04-03T12:15:38.736Z,1.87
2023-04-03T12:16:40.470Z,1.37
2023-04-03T12:17:42.050Z,1.20
2023-04-03T12:18:43.588Z,1.50
2023-04-03T12:19:47.368Z,1.70
2023-04-03T12:20:56.015Z,2.07
2023-04-03T12:22:00.284Z,1.70
2023-04-03T12:23:08.722Z,1.70
2023-04-03T12:24:10.027Z,1.10
2023-04-03T12:25:30.508Z,1.50
2023-04-03T12:27:07.387Z,1.30
2023-04-03T12:28:11.440Z,2.73
2023-04-03T12:29:18.396Z,3.17
2023-04-03T12:30:22.730Z,1.50
2023-04-03T12:31:25.962Z,1.87
2023-04-03T12:32:49.497Z,1.30
2023-04-03T12:34:07.175Z,1.53
2023-04-03T12:35:08.458Z,1.80
2023-04-03T12:36:19.354Z,1.40
2023-04-03T12:37:39.315Z,1.60
2023-04-03T12:39:02.992Z,1.50
2023-04-03T12:40:19.881Z,1.40
2023-04-03T12:44:23.364Z,1.63
2023-04-03T12:45:32.272Z,1.47
2023-04-03T12:47:09.596Z,1.47
2023-04-03T12:49:01.889Z,2.27
2023-04-03T12:53:52.221Z,1.57
2023-04-03T12:56:06.971Z,1.73
2023-04-03T12:57:42.401Z,1.60
2023-04-03T12:59:14.145Z,1.90
2023-04-03T13:00:41.979Z,1.60
2023-04-03T13:01:43.640Z,1.47
2023-04-03T13:02:46.076Z,1.33
2023-04-03T13:03:57.890Z,1.40
2023-04-03T13:05:00.538Z,1.47
2023-04-03T13:06:02.918Z,1.43
2023-04-03T13:07:05.048Z,1.40
2023-04-03T13:08:09.572Z,1.33
2023-04-03T13:09:19.903Z,1.20
2023-04-03T13:10:21.536Z,1.10
2023-04-03T13:11:23.214Z,1.50
2023-04-03T13:12:24.595Z,1.17
2023-04-03T13:13:27.283Z,1.57
2023-04-03T13:14:30.004Z,1.73
2023-04-03T13:15:40.486Z,1.23
2023-04-03T13:16:42.404Z,1.27
2023-04-03T13:17:44.074Z,1.60
2023-04-03T13:18:51.490Z,1.47
2023-04-03T13:19:53.471Z,1.60
2023-04-03T13:20:58.082Z,1.47
2023-04-03T13:22:02.598Z,1.40
2023-04-03T13:23:06.408Z,1.30
2023-04-03T13:24:15.377Z,1.30
2023-04-03T13:25:17.968Z,1.20
2023-04-03T13:26:20.797Z,1.47
2023-04-03T13:27:22.565Z,1.60
2023-04-03T13:28:24.480Z,1.30
2023-04-03T13:29:31.365Z,1.33
2023-04-03T13:30:35.093Z,1.30
2023-04-03T13:31:38.146Z,1.10
2023-04-03T13:32:39.869Z,1.70
2023-04-03T13:33:52.438Z,1.40
2023-04-03T13:34:53.789Z,1.30
2023-04-03T13:35:56.556Z,1.60
2023-04-03T13:36:59.584Z,1.30
2023-04-03T13:38:02.956Z,1.60
2023-04-03T13:39:04.383Z,1.83
2023-04-03T13:40:08.682Z,2.13
2023-04-03T13:41:25.090Z,2.07
2023-04-03T13:42:27.862Z,1.83
2023-04-03T13:43:30.838Z,1.60
2023-04-03T13:44:34.267Z,1.40
2023-04-03T13:45:36.226Z,1.53
2023-04-03T13:46:37.732Z,1.10
2023-04-03T13:47:40.627Z,1.40
2023-04-03T13:48:46.007Z,1.80
2023-04-03T13:50:00.770Z,1.60
2023-04-03T13:51:04.130Z,1.63
2023-04-03T13:52:44.011Z,1.30
2023-04-03T13:53:47.507Z,1.47
2023-04-03T13:54:52.777Z,1.73
2023-04-03T13:56:06.311Z,1.27
2023-04-03T13:57:14.992Z,1.40
2023-04-03T13:58:16.447Z,1.37
2023-04-03T13:59:17.837Z,1.57
2023-04-03T14:00:28.302Z,1.50
2023-04-03T14:01:44.173Z,1.70
2023-04-03T14:02:48.224Z,1.60
2023-04-03T14:03:55.595Z,1.40
2023-04-03T14:05:00.910Z,1.80
2023-04-03T14:06:09.324Z,1.53
2023-04-03T14:07:13.548Z,1.27
2023-04-03T14:08:15.088Z,1.40
2023-04-03T14:09:17.535Z,1.40
2023-04-03T14:10:18.858Z,1.30
2023-04-03T14:11:20.137Z,1.53
2023-04-03T14:12:30.667Z,1.63
2023-04-03T14:13:33.121Z,1.70
2023-04-03T14:14:36.461Z,1.47
2023-04-03T14:15:38.080Z,1.50
2023-04-03T14:16:40.465Z,1.63
2023-04-03T14:17:43.179Z,2.67
2023-04-03T14:18:45.170Z,3.37
2023-04-03T14:19:47.084Z,3.70
2023-04-03T14:20:49.108Z,2.00
2023-04-03T14:21:51.643Z,1.97
2023-04-03T14:22:53.493Z,2.07
2023-04-03T14:23:54.938Z,1.60
2023-04-03T14:24:56.995Z,1.60
2023-04-03T14:25:58.515Z,1.53
2023-04-03T14:27:01.250Z,1.60
2023-04-03T14:28:13.373Z,1.40